createdAt,value
2024-05-09T00:00:06.401Z,5.38
2024-05-09T00:03:10.157Z,5.93
2024-05-09T00:06:13.877Z,5.78
2024-05-09T00:09:16.342Z,5.40
2024-05-09T00:12:21.496Z,5.95
2024-05-09T00:15:23.859Z,5.80
2024-05-09T00:18:26.444Z,5.95
2024-05-09T00:21:28.822Z,5.47
2024-05-09T00:24:33.386Z,5.53
2024-05-09T00:27:38.425Z,5.70
2024-05-09T00:30:41.618Z,5.63
2024-05-09T00:33:44.149Z,6.25
2024-05-09T00:36:47.312Z,5.95
2024-05-09T00:39:49.493Z,5.90
2024-05-09T00:42:54.256Z,6.80
2024-05-09T00:45:57.654Z,6.45
2024-05-09T00:48:59.937Z,5.80
2024-05-09T00:52:02.836Z,6.47
2024-05-09T00:55:06.801Z,6.20
2024-05-09T00:58:16.348Z,7.35
2024-05-09T01:01:23.306Z,6.75
2024-05-09T01:04:25.535Z,6.65
2024-05-09T01:07:28.576Z,6.28
2024-05-09T01:10:34.288Z,5.47
2024-05-09T01:13:40.361Z,5.85
2024-05-09T01:16:42.813Z,6.55
2024-05-09T01:19:45.586Z,5.90
2024-05-09T01:22:48.156Z,5.32
2024-05-09T01:25:53.089Z,5.05
2024-05-09T01:28:55.437Z,5.20
2024-05-09T01:32:01.378Z,5.68
2024-05-09T01:35:03.835Z,5.45
2024-05-09T01:38:06.448Z,5.93
2024-05-09T01:41:11.544Z,5.45
2024-05-09T01:44:13.891Z,5.18
2024-05-09T01:47:17.401Z,4.28
2024-05-09T01:50:28.954Z,5.82
2024-05-09T01:53:39.257Z,5.55
2024-05-09T01:56:44.765Z,5.20
2024-05-09T02:02:49.223Z,6.05
2024-05-09T02:05:51.524Z,4.25
2024-05-09T02:08:53.878Z,4.18
2024-05-09T02:12:00.080Z,5.00
2024-05-09T02:15:02.428Z,4.10
2024-05-09T02:18:06.041Z,4.65
2024-05-09T02:21:09.320Z,3.95
2024-05-09T02:24:12.105Z,3.28
2024-05-09T02:27:17.064Z,3.33
2024-05-09T02:30:26.408Z,3.50
2024-05-09T02:33:38.478Z,2.78
2024-05-09T02:36:40.840Z,2.88
2024-05-09T02:39:44.074Z,2.92
2024-05-09T02:42:49.000Z,3.05
2024-05-09T02:45:52.137Z,3.33
2024-05-09T02:48:54.472Z,2.67
2024-05-09T02:51:56.716Z,3.22
2024-05-09T02:54:58.901Z,2.88
2024-05-09T02:58:04.349Z,3.25
2024-05-09T03:01:06.582Z,2.58
2024-05-09T03:04:09.509Z,2.80
2024-05-09T03:07:12.125Z,2.47
2024-05-09T03:10:22.236Z,2.75
2024-05-09T03:13:30.515Z,2.42
2024-05-09T03:16:38.377Z,2.22
2024-05-09T03:19:40.960Z,2.85
2024-05-09T03:22:43.445Z,2.67
2024-05-09T03:25:45.823Z,2.60
2024-05-09T03:28:50.723Z,2.45
2024-05-09T03:31:53.112Z,2.70
2024-05-09T03:34:55.981Z,2.53
2024-05-09T03:37:58.245Z,2.83
2024-05-09T03:41:00.875Z,2.50
2024-05-09T03:44:06.044Z,3.17
2024-05-09T03:47:08.383Z,3.00
2024-05-09T03:50:18.298Z,2.25
2024-05-09T03:53:28.411Z,2.42
2024-05-09T03:56:31.112Z,2.63
2024-05-09T03:59:37.124Z,2.60
2024-05-09T04:02:42.820Z,2.83
2024-05-09T04:05:45.252Z,2.25
2024-05-09T04:08:47.590Z,3.00
2024-05-09T04:11:49.845Z,2.78
2024-05-09T04:14:55.651Z,2.60
2024-05-09T04:17:58.329Z,2.60
2024-05-09T04:21:00.709Z,2.45
2024-05-09T04:24:02.814Z,2.70
2024-05-09T04:27:06.036Z,2.53
2024-05-09T04:30:18.549Z,2.63
2024-05-09T04:33:24.287Z,2.30
2024-05-09T04:36:26.723Z,2.45
2024-05-09T04:39:29.268Z,2.40
2024-05-09T04:42:31.640Z,2.45
2024-05-09T04:45:36.503Z,2.70
2024-05-09T04:48:39.833Z,2.72
2024-05-09T04:51:42.358Z,2.50
2024-05-09T04:54:44.624Z,2.22
2024-05-09T04:57:47.636Z,2.38
2024-05-09T05:00:52.482Z,2.38
2024-05-09T05:03:56.242Z,2.60
2024-05-09T05:07:02.131Z,2.72
2024-05-09T05:10:05.969Z,2.45
2024-05-09T05:13:20.600Z,2.45
2024-05-09T05:16:26.501Z,2.40
2024-05-09T05:19:29.814Z,2.38
2024-05-09T05:22:32.113Z,2.60
2024-05-09T05:25:34.670Z,2.60
2024-05-09T05:28:36.921Z,3.00
2024-05-09T05:31:41.894Z,2.58
2024-05-09T05:34:44.658Z,2.85
2024-05-09T05:37:47.072Z,2.90
2024-05-09T05:40:49.358Z,2.42
2024-05-09T05:43:52.635Z,2.42
2024-05-09T05:46:57.550Z,2.22
2024-05-09T05:49:59.930Z,2.97
2024-05-09T05:53:03.552Z,2.50
2024-05-09T05:56:06.275Z,2.35
2024-05-09T05:59:08.623Z,2.50
2024-05-09T06:02:14.374Z,2.08
2024-05-09T06:05:16.629Z,3.15
2024-05-09T06:08:19.034Z,2.83
2024-05-09T06:11:21.610Z,3.55
2024-05-09T06:14:24.150Z,2.83
2024-05-09T06:17:29.388Z,3.35
2024-05-09T06:20:35.970Z,3.60
2024-05-09T06:23:45.880Z,3.35
2024-05-09T06:26:48.126Z,3.08
2024-05-09T06:29:50.562Z,2.78
2024-05-09T06:32:55.605Z,2.70
2024-05-09T06:35:59.761Z,2.33
2024-05-09T06:39:02.583Z,2.78
2024-05-09T06:42:04.964Z,2.45
2024-05-09T06:45:07.841Z,3.13
2024-05-09T06:48:12.888Z,3.03
2024-05-09T06:51:15.285Z,2.25
2024-05-09T06:54:18.545Z,2.28
2024-05-09T06:57:21.642Z,2.72
2024-05-09T07:00:30.908Z,2.17
2024-05-09T07:03:44.501Z,2.22
2024-05-09T07:06:47.391Z,2.40
2024-05-09T07:09:49.680Z,2.20
2024-05-09T07:12:51.821Z,2.67
2024-05-09T07:15:54.144Z,2.58
2024-05-09T07:18:59.186Z,2.67
2024-05-09T07:22:01.538Z,1.92
2024-05-09T07:25:04.841Z,2.50
2024-05-09T07:28:11.483Z,1.98
2024-05-09T07:31:13.697Z,2.58
2024-05-09T07:34:19.263Z,2.33
2024-05-09T07:37:21.567Z,2.50
2024-05-09T07:40:32.918Z,2.65
2024-05-09T07:43:38.513Z,2.75
2024-05-09T07:47:47.731Z,2.42
2024-05-09T07:52:22.663Z,2.63
2024-05-09T07:53:40.000Z,2.08
2024-05-09T07:56:46.959Z,2.13
2024-05-09T07:59:50.341Z,1.92
2024-05-09T08:02:52.490Z,2.20
2024-05-09T08:05:57.959Z,2.10
2024-05-09T08:12:13.054Z,2.40
2024-05-09T08:15:15.373Z,2.33
2024-05-09T08:18:18.429Z,2.22
2024-05-09T08:21:23.272Z,2.25
2024-05-09T08:24:26.368Z,2.20
2024-05-09T08:27:28.730Z,2.30
2024-05-09T08:30:36.704Z,1.88
2024-05-09T08:33:44.758Z,2.10
2024-05-09T08:36:50.435Z,2.15
2024-05-09T08:39:52.821Z,2.28
2024-05-09T08:42:57.685Z,1.95
2024-05-09T08:46:02.434Z,2.08
2024-05-09T08:49:04.922Z,2.15
2024-05-09T08:52:11.091Z,1.75
2024-05-09T08:55:13.860Z,1.77
2024-05-09T08:58:18.483Z,1.90
2024-05-09T09:01:22.336Z,2.13
2024-05-09T09:04:25.570Z,1.98
2024-05-09T09:07:33.606Z,2.20
2024-05-09T09:10:36.963Z,2.03
2024-05-09T09:13:40.323Z,2.10
2024-05-09T09:16:42.598Z,1.85
2024-05-09T09:19:45.331Z,1.88
2024-05-09T09:22:50.828Z,3.25
2024-05-09T09:25:54.278Z,2.00
2024-05-09T09:29:00.378Z,2.17
2024-05-09T09:32:04.960Z,1.88
2024-05-09T09:35:08.351Z,2.15
2024-05-09T09:38:18.436Z,1.88
2024-05-09T09:41:26.216Z,1.73
2024-05-09T09:44:28.996Z,1.60
2024-05-09T09:47:32.461Z,1.88
2024-05-09T09:50:36.008Z,2.13
2024-05-09T09:53:42.721Z,2.10
2024-05-09T09:56:47.750Z,1.70
2024-05-09T09:59:51.357Z,1.88
2024-05-09T10:02:54.141Z,1.88
2024-05-09T10:05:57.338Z,1.92
2024-05-09T10:09:03.136Z,1.63
2024-05-09T10:12:12.148Z,2.17
2024-05-09T10:15:20.167Z,1.65
2024-05-09T10:18:30.205Z,1.80
2024-05-09T10:21:33.653Z,2.38
2024-05-09T10:25:05.571Z,1.80
2024-05-09T10:28:11.912Z,2.00
2024-05-09T10:31:16.305Z,2.00
2024-05-09T10:34:19.399Z,1.90
2024-05-09T10:37:22.556Z,2.20
2024-05-09T10:40:31.362Z,1.60
2024-05-09T10:43:38.558Z,1.80
2024-05-09T10:46:41.454Z,1.60
2024-05-09T10:49:43.999Z,2.05
2024-05-09T10:52:46.234Z,1.45
2024-05-09T10:55:58.833Z,1.77
2024-05-09T10:59:03.906Z,1.42
2024-05-09T11:05:09.564Z,1.90
2024-05-09T11:08:12.613Z,1.95
2024-05-09T11:11:18.787Z,1.42
2024-05-09T11:14:20.971Z,1.58
2024-05-09T11:17:23.900Z,1.50
2024-05-09T11:20:35.508Z,1.70
2024-05-09T11:23:38.521Z,1.60
2024-05-09T11:26:43.512Z,1.70
2024-05-09T11:29:46.393Z,1.83
2024-05-09T11:32:49.533Z,2.00
2024-05-09T11:35:51.770Z,1.65
2024-05-09T11:38:54.028Z,1.48
2024-05-09T11:41:58.876Z,1.48
2024-05-09T11:45:01.082Z,1.48
2024-05-09T11:48:04.232Z,1.25
2024-05-09T11:51:06.544Z,1.40
2024-05-09T11:54:08.704Z,1.83
2024-05-09T11:57:14.504Z,1.67
2024-05-09T12:00:24.589Z,1.50
2024-05-09T12:03:31.871Z,2.13
2024-05-09T12:06:34.263Z,2.03
2024-05-09T12:09:36.521Z,1.10
2024-05-09T12:12:41.440Z,1.80
2024-05-09T12:15:43.718Z,1.55
2024-05-09T12:18:46.809Z,1.92
2024-05-09T12:21:49.288Z,1.90
2024-05-09T12:24:51.636Z,1.48
2024-05-09T12:27:57.498Z,1.88
2024-05-09T12:30:59.787Z,1.85
2024-05-09T12:34:02.676Z,1.88
2024-05-09T12:37:05.225Z,1.75
2024-05-09T12:40:15.833Z,1.83
2024-05-09T12:43:23.583Z,1.85
2024-05-09T12:49:28.472Z,1.75
2024-05-09T12:52:30.815Z,1.75
2024-05-09T12:55:41.161Z,1.52
2024-05-09T12:58:53.836Z,1.50
2024-05-09T13:01:58.792Z,1.30
2024-05-09T13:05:03.005Z,1.70
2024-05-09T13:08:06.254Z,1.20
2024-05-09T13:11:08.835Z,1.17
2024-05-09T13:14:14.190Z,1.80
2024-05-09T13:17:16.751Z,1.58
2024-05-09T13:20:26.326Z,1.70
2024-05-09T13:23:34.957Z,1.35
2024-05-09T13:26:37.249Z,1.13
2024-05-09T13:29:44.202Z,1.55
2024-05-09T13:32:47.680Z,1.73
2024-05-09T13:35:51.076Z,1.40
2024-05-09T13:38:56.872Z,1.20
2024-05-09T13:41:58.997Z,1.25
2024-05-09T13:45:04.662Z,1.85
2024-05-09T13:48:10.002Z,1.52
2024-05-09T13:51:12.583Z,1.02
2024-05-09T13:54:16.661Z,1.45
2024-05-09T13:57:19.745Z,0.95
2024-05-09T14:03:30.521Z,1.33
2024-05-09T14:06:33.505Z,1.50
2024-05-09T14:09:36.094Z,1.60
2024-05-09T14:12:38.724Z,1.13
2024-05-09T14:15:43.820Z,1.42
2024-05-09T14:21:48.757Z,1.20
2024-05-09T14:24:51.056Z,1.45
2024-05-09T14:27:53.676Z,1.85
2024-05-09T14:30:58.629Z,1.83
2024-05-09T14:34:01.721Z,1.05
2024-05-09T14:37:04.428Z,1.67
2024-05-09T14:40:14.692Z,1.20
2024-05-09T14:43:23.526Z,1.50
2024-05-09T14:46:28.966Z,1.60
2024-05-09T14:49:31.474Z,1.48
2024-05-09T14:52:34.217Z,1.40
2024-05-09T14:55:37.742Z,1.30
2024-05-09T14:58:41.461Z,1.58
2024-05-09T15:01:46.571Z,1.30
2024-05-09T15:04:49.501Z,1.40
2024-05-09T15:07:51.769Z,1.70
2024-05-09T15:10:54.599Z,2.08
2024-05-09T15:13:56.862Z,1.50
2024-05-09T15:17:02.000Z,1.40
2024-05-09T15:20:09.192Z,1.58
2024-05-09T15:23:11.823Z,1.25
2024-05-09T15:26:14.466Z,1.73
2024-05-09T15:29:16.711Z,1.13
2024-05-09T15:32:21.893Z,1.45
2024-05-09T15:38:27.865Z,1.50
2024-05-09T15:41:30.076Z,1.30
2024-05-09T15:44:34.217Z,1.27
2024-05-09T15:47:39.331Z,1.52
2024-05-09T15:50:42.752Z,1.23
2024-05-09T15:53:45.277Z,1.90
2024-05-09T15:56:49.508Z,1.42
2024-05-09T15:59:52.122Z,1.25
2024-05-09T16:02:57.131Z,1.58
2024-05-09T16:09:02.193Z,0.98
2024-05-09T16:12:05.217Z,1.63
2024-05-09T16:15:08.622Z,1.60
2024-05-09T16:18:13.748Z,1.60
2024-05-09T16:24:17.839Z,1.80
2024-05-09T16:27:20.040Z,1.50
2024-05-09T16:30:28.305Z,1.77
2024-05-09T16:33:40.567Z,1.25
2024-05-09T16:36:44.102Z,1.42
2024-05-09T16:39:46.511Z,1.30
2024-05-09T16:42:49.070Z,1.70
2024-05-09T16:45:51.435Z,1.35
2024-05-09T16:48:56.822Z,1.50
2024-05-09T16:51:59.230Z,2.08
2024-05-09T16:55:02.231Z,1.52
2024-05-09T16:58:05.346Z,1.60
2024-05-09T17:01:07.799Z,1.65
2024-05-09T17:04:13.918Z,1.67
2024-05-09T17:07:16.710Z,1.35
2024-05-09T17:10:26.780Z,1.83
2024-05-09T17:13:39.336Z,1.63
2024-05-09T17:16:41.952Z,1.75
2024-05-09T17:19:48.216Z,1.67
2024-05-09T17:22:50.449Z,2.00
2024-05-09T17:25:52.700Z,1.77
2024-05-09T17:28:54.997Z,1.42
2024-05-09T17:31:57.859Z,1.95
2024-05-09T17:35:03.094Z,1.77
2024-05-09T17:41:07.949Z,1.73
2024-05-09T17:44:10.321Z,1.73
2024-05-09T17:47:12.930Z,2.17
2024-05-09T17:50:24.550Z,1.85
2024-05-09T17:53:33.213Z,2.38
2024-05-09T17:56:35.870Z,2.03
2024-05-09T17:59:38.315Z,2.00
2024-05-09T18:02:40.875Z,1.90
2024-05-09T18:05:46.024Z,1.80
2024-05-09T18:08:48.339Z,2.42
2024-05-09T18:11:50.920Z,1.90
2024-05-09T18:14:53.060Z,2.53
2024-05-09T18:17:55.408Z,2.17
2024-05-09T18:21:00.450Z,1.83
2024-05-09T18:24:02.672Z,1.50
2024-05-09T18:27:06.403Z,2.53
2024-05-09T18:30:23.787Z,2.03
2024-05-09T18:33:30.849Z,2.20
2024-05-09T18:36:35.928Z,2.33
2024-05-09T18:39:39.967Z,2.15
2024-05-09T18:42:42.601Z,2.33
2024-05-09T18:45:46.019Z,2.17
2024-05-09T18:48:48.470Z,2.53
2024-05-09T18:51:53.482Z,1.92
2024-05-09T18:54:55.832Z,1.95
2024-05-09T18:57:58.072Z,2.25
2024-05-09T19:01:01.929Z,2.65
2024-05-09T19:04:05.027Z,3.03
2024-05-09T19:07:10.418Z,2.10
2024-05-09T19:10:22.157Z,2.40
2024-05-09T19:13:28.048Z,2.15
2024-05-09T19:16:31.173Z,2.50
2024-05-09T19:19:33.950Z,2.70
2024-05-09T19:22:39.149Z,2.20
2024-05-09T19:25:41.794Z,2.15
2024-05-09T19:28:44.068Z,2.28
2024-05-09T19:31:46.747Z,1.95
2024-05-09T19:34:49.099Z,1.88
2024-05-09T19:37:54.213Z,2.00
2024-05-09T19:40:56.476Z,1.83
2024-05-09T19:43:58.843Z,1.75
2024-05-09T19:47:01.452Z,1.80
2024-05-09T19:50:06.327Z,1.70
2024-05-09T19:53:16.261Z,2.10
2024-05-09T19:56:18.504Z,1.80
2024-05-09T19:59:20.622Z,1.98
2024-05-09T20:02:23.654Z,1.75
2024-05-09T20:05:26.918Z,1.73
2024-05-09T20:08:33.286Z,1.60
2024-05-09T20:11:37.998Z,1.85
2024-05-09T20:14:40.612Z,1.90
2024-05-09T20:17:42.777Z,1.75
2024-05-09T20:20:45.669Z,1.70
2024-05-09T20:23:51.160Z,2.05
2024-05-09T20:26:53.390Z,1.65
2024-05-09T20:29:56.516Z,2.35
2024-05-09T20:32:59.006Z,2.08
2024-05-09T20:36:02.468Z,2.10
2024-05-09T20:39:07.633Z,1.50
2024-05-09T20:42:09.874Z,1.50
2024-05-09T20:45:12.116Z,2.38
2024-05-09T20:48:14.583Z,1.95
2024-05-09T20:51:16.750Z,1.88
2024-05-09T20:54:21.600Z,1.80
2024-05-09T20:57:24.517Z,1.70
2024-05-09T21:00:35.156Z,1.52
2024-05-09T21:03:42.150Z,1.90
2024-05-09T21:06:44.471Z,2.10
2024-05-09T21:09:49.324Z,1.88
2024-05-09T21:12:52.355Z,2.40
2024-05-09T21:15:54.654Z,2.55
2024-05-09T21:18:57.403Z,1.55
2024-05-09T21:21:59.618Z,1.65
2024-05-09T21:25:05.625Z,1.90
2024-05-09T21:28:08.305Z,1.92
2024-05-09T21:31:10.691Z,2.03
2024-05-09T21:34:13.307Z,2.20
2024-05-09T21:37:15.647Z,2.03
2024-05-09T21:40:30.690Z,1.70
2024-05-09T21:43:37.774Z,1.75
2024-05-09T21:46:40.123Z,2.38
2024-05-09T21:49:43.239Z,2.67
2024-05-09T21:52:45.438Z,1.83
2024-05-09T21:55:50.916Z,1.75
2024-05-09T21:58:53.176Z,1.98
2024-05-09T22:01:55.705Z,1.90
2024-05-09T22:04:58.571Z,1.83
2024-05-09T22:08:01.076Z,1.70
2024-05-09T22:11:07.205Z,2.10
2024-05-09T22:14:09.356Z,1.95
2024-05-09T22:17:12.311Z,2.10
2024-05-09T22:20:21.918Z,1.90
2024-05-09T22:23:31.179Z,1.88
2024-05-09T22:26:36.487Z,3.28
2024-05-09T22:29:38.873Z,2.22
2024-05-09T22:32:41.229Z,2.03
2024-05-09T22:35:43.587Z,1.65
2024-05-09T22:38:45.620Z,1.92
2024-05-09T22:41:50.916Z,1.98
2024-05-09T22:44:52.990Z,1.95
2024-05-09T22:47:55.415Z,1.90
2024-05-09T22:50:57.688Z,1.55
2024-05-09T22:54:01.315Z,1.75
2024-05-09T22:57:06.229Z,1.65
2024-05-09T23:00:12.420Z,2.05
2024-05-09T23:03:18.941Z,2.20
2024-05-09T23:06:21.178Z,1.50
2024-05-09T23:09:24.263Z,1.60
2024-05-09T23:12:29.090Z,2.15
2024-05-09T23:15:32.119Z,1.90
2024-05-09T23:18:34.615Z,2.47
2024-05-09T23:21:39.039Z,2.10
2024-05-09T23:24:41.388Z,1.92
2024-05-09T23:27:46.335Z,2.45
2024-05-09T23:30:48.606Z,1.85
2024-05-09T23:33:51.214Z,2.15
2024-05-09T23:36:53.610Z,1.88
2024-05-09T23:39:56.607Z,1.88
2024-05-09T23:43:01.434Z,2.65
2024-05-09T23:46:04.243Z,1.85
2024-05-09T23:49:06.405Z,2.95
2024-05-09T23:52:08.679Z,2.55
2024-05-09T23:55:11.075Z,2.50
2024-05-09T23:58:16.012Z,2.92
